createdAt,value
2018-12-19T00:00:27.961Z,-2.4
2018-12-19T00:01:27.869Z,-2.4
2018-12-19T00:02:27.749Z,-2.4
2018-12-19T00:03:27.654Z,-2.4
2018-12-19T00:04:27.592Z,-2.4
2018-12-19T00:05:27.903Z,-2.4
2018-12-19T00:06:27.779Z,-2.4
2018-12-19T00:15:26.706Z,-1.6
2018-12-19T00:16:26.576Z,-1.7
2018-12-19T00:17:26.469Z,-1.7
2018-12-19T00:18:26.362Z,-1.7
2018-12-19T00:19:26.278Z,-1.8
2018-12-19T00:20:26.162Z,-1.8
2018-12-19T00:21:26.066Z,-1.9
2018-12-19T00:22:26.189Z,-2
2018-12-19T00:23:26.130Z,-2
2018-12-19T00:24:26.014Z,-2
2018-12-19T00:25:26.339Z,-2.1
2018-12-19T00:26:26.277Z,-2.1
2018-12-19T00:27:26.160Z,-2.1
2018-12-19T00:28:26.055Z,-2.2
2018-12-19T00:29:25.954Z,-2.2
2018-12-19T00:30:25.867Z,-2.3
2018-12-19T00:31:25.785Z,-2.3
2018-12-19T00:32:25.710Z,-2.3
2018-12-19T00:33:25.599Z,-2.4
2018-12-19T00:34:25.489Z,-2.4
2018-12-19T00:35:25.867Z,-2.4
2018-12-19T00:36:25.765Z,-2.4
2018-12-19T00:37:25.653Z,-2.5
2018-12-19T00:38:25.577Z,-2.5
2018-12-19T00:39:25.476Z,-2.5
2018-12-19T00:40:25.376Z,-2.5
2018-12-19T00:41:25.263Z,-2.5
2018-12-19T00:42:25.138Z,-2.5
2018-12-19T00:43:26.033Z,-2.5
2018-12-19T00:44:25.949Z,-2.5
2018-12-19T00:45:26.291Z,-2.6
2018-12-19T00:46:26.191Z,-2.6
2018-12-19T01:55:21.354Z,-1.6
2018-12-19T01:56:21.260Z,-1.6
2018-12-19T01:57:21.142Z,-1.7
2018-12-19T01:58:21.046Z,-1.7
2018-12-19T01:59:20.966Z,-1.7
2018-12-19T02:00:20.861Z,-1.7
2018-12-19T02:01:21.798Z,-1.8
2018-12-19T02:02:21.680Z,-1.8
2018-12-19T02:03:21.566Z,-1.9
2018-12-19T02:04:21.457Z,-1.9
2018-12-19T02:05:21.993Z,-1.9
2018-12-19T02:06:21.908Z,-2
2018-12-19T02:07:21.803Z,-2
2018-12-19T02:08:21.701Z,-2
2018-12-19T02:09:21.587Z,-1.9
2018-12-19T02:10:21.507Z,-1.9
2018-12-19T02:11:21.388Z,-1.9
2018-12-19T02:12:21.364Z,-1.8
2018-12-19T02:13:21.265Z,-1.8
2018-12-19T02:14:21.156Z,-1.9
2018-12-19T02:15:21.724Z,-1.8
2018-12-19T02:16:21.609Z,-1.8
2018-12-19T02:17:21.534Z,-1.7
2018-12-19T02:18:21.425Z,-1.7
2018-12-19T02:19:21.316Z,-1.7
2018-12-19T02:20:21.201Z,-1.7
2018-12-19T02:21:21.098Z,-1.6
2018-12-19T02:22:21.003Z,-1.6
2018-12-19T02:23:20.933Z,-1.6
2018-12-19T02:24:20.823Z,-1.6
2018-12-19T02:25:21.161Z,-1.6
2018-12-19T02:26:21.052Z,-1.5
2018-12-19T02:35:19.528Z,-0.8
2018-12-19T02:36:20.110Z,-0.8
2018-12-19T02:37:20.032Z,-0.8
2018-12-19T02:38:19.919Z,-0.8
2018-12-19T02:39:19.846Z,-0.8
2018-12-19T02:40:19.756Z,-0.8
2018-12-19T02:41:19.642Z,-0.8
2018-12-19T02:42:19.538Z,-0.9
2018-12-19T02:43:19.440Z,-1
2018-12-19T02:44:20.450Z,-1.2
2018-12-19T02:45:20.877Z,-1.2
2018-12-19T02:46:20.766Z,-1.2
2018-12-19T02:47:20.960Z,-1.2
2018-12-19T02:48:20.860Z,-1.3
2018-12-19T02:49:20.732Z,-1.4
2018-12-19T02:50:20.602Z,-1.5
2018-12-19T02:51:20.475Z,-1.6
2018-12-19T02:52:20.370Z,-1.6
2018-12-19T02:53:20.488Z,-1.7
2018-12-19T02:54:20.427Z,-1.7
2018-12-19T02:55:23.917Z,-1.8
2018-12-19T02:56:23.818Z,-1.8
2018-12-19T03:25:21.310Z,-1.2
2018-12-19T03:26:23.926Z,-1.2
2018-12-19T03:27:24.845Z,-1.3
2018-12-19T03:28:24.742Z,-1.4
2018-12-19T03:29:24.612Z,-1.4
2018-12-19T03:30:24.528Z,-1.4
2018-12-19T03:31:24.454Z,-1.4
2018-12-19T03:32:24.383Z,-1.4
2018-12-19T03:33:24.287Z,-1.5
2018-12-19T03:34:24.196Z,-1.5
2018-12-19T03:35:28.071Z,-1.5
2018-12-19T03:36:27.978Z,-1.5
2018-12-19T03:37:27.926Z,-1.6
2018-12-19T03:38:27.824Z,-1.7
2018-12-19T03:39:27.770Z,-1.7
2018-12-19T03:40:27.680Z,-1.7
2018-12-19T03:41:27.830Z,-1.7
2018-12-19T03:42:27.730Z,-1.6
2018-12-19T03:43:27.646Z,-1.6
2018-12-19T03:44:30.558Z,-1.6
2018-12-19T03:45:31.164Z,-1.7
2018-12-19T03:46:31.076Z,-1.6
2018-12-19T03:47:30.968Z,-1.6
2018-12-19T03:48:30.898Z,-1.7
2018-12-19T03:49:30.791Z,-1.7
2018-12-19T03:50:30.692Z,-1.7
2018-12-19T03:51:30.578Z,-1.7
2018-12-19T03:52:30.479Z,-1.7
2018-12-19T03:53:30.389Z,-1.7
2018-12-19T03:54:30.308Z,-1.7
2018-12-19T03:55:30.836Z,-1.7
2018-12-19T03:56:30.718Z,-1.7
2018-12-19T03:57:30.604Z,-1.6
2018-12-19T04:05:29.432Z,-0.8
2018-12-19T04:06:29.323Z,-0.8
2018-12-19T04:07:29.206Z,-0.8
2018-12-19T04:08:29.115Z,-0.8
2018-12-19T04:09:29.057Z,-0.8
2018-12-19T04:10:29.184Z,-0.9
2018-12-19T04:11:29.117Z,-0.9
2018-12-19T04:12:29.010Z,-0.9
2018-12-19T04:13:28.893Z,-0.9
2018-12-19T04:14:29.029Z,-1
2018-12-19T04:15:29.374Z,-1
2018-12-19T04:16:29.265Z,-1.1
2018-12-19T04:17:29.180Z,-1
2018-12-19T04:18:29.081Z,-1
2018-12-19T04:21:28.459Z,-0.6
2018-12-19T04:25:28.031Z,-0.4
2018-12-19T04:26:27.981Z,-0.4
2018-12-19T04:27:27.879Z,-0.5
2018-12-19T04:28:27.775Z,-0.6
2018-12-19T04:29:27.659Z,-0.6
2018-12-19T04:30:27.566Z,-0.6
2018-12-19T04:31:27.535Z,-0.7
2018-12-19T04:32:27.430Z,-0.8
2018-12-19T04:33:27.315Z,-0.8
2018-12-19T04:34:27.218Z,-0.8
2018-12-19T04:35:27.567Z,-0.9
2018-12-19T04:36:27.602Z,-0.9
2018-12-19T04:37:27.505Z,-0.9
2018-12-19T04:38:28.662Z,-0.9
2018-12-19T04:39:28.549Z,-0.9
2018-12-19T04:40:28.445Z,-0.9
2018-12-19T04:41:28.329Z,-0.8
2018-12-19T04:42:28.232Z,-0.8
2018-12-19T04:43:28.146Z,-0.8
2018-12-19T04:44:28.056Z,-0.8
2018-12-19T04:45:28.656Z,-0.8
2018-12-19T04:46:28.553Z,-0.8
2018-12-19T04:47:29.524Z,-0.8
2018-12-19T04:48:29.649Z,-0.7
2018-12-19T04:49:29.545Z,-0.7
2018-12-19T04:50:29.482Z,-0.7
2018-12-19T04:51:29.674Z,-0.6
2018-12-19T04:52:29.556Z,-0.6
2018-12-19T04:53:29.474Z,-0.6
2018-12-19T04:54:29.356Z,-0.6
2018-12-19T04:55:29.726Z,-0.6
2018-12-19T04:56:29.640Z,-0.6
2018-12-19T04:57:29.566Z,-0.6
2018-12-19T04:58:29.472Z,-0.6
2018-12-19T04:59:29.377Z,-0.6
2018-12-19T05:00:29.269Z,-0.6
2018-12-19T05:01:29.166Z,-0.6
2018-12-19T05:02:29.066Z,-0.6
2018-12-19T05:03:29.000Z,-0.6
2018-12-19T05:04:28.890Z,-0.6
2018-12-19T05:05:29.314Z,-0.6
2018-12-19T05:06:29.229Z,-0.6
2018-12-19T05:07:29.152Z,-0.6
2018-12-19T05:08:29.041Z,-0.5
2018-12-19T05:09:29.190Z,-0.5
2018-12-19T05:10:29.073Z,-0.5
2018-12-19T05:11:28.962Z,-0.5
2018-12-19T05:12:28.954Z,-0.5
2018-12-19T05:13:28.858Z,-0.5
2018-12-19T05:14:28.811Z,-0.5
2018-12-19T05:15:29.114Z,-0.5
2018-12-19T05:16:28.997Z,-0.5
2018-12-19T05:17:28.890Z,-0.5
2018-12-19T05:18:28.785Z,-0.5
2018-12-19T05:19:28.701Z,-0.4
2018-12-19T05:20:28.594Z,-0.4
2018-12-19T05:21:28.712Z,-0.5
2018-12-19T05:22:28.602Z,-0.4
2018-12-19T05:23:28.486Z,-0.4
2018-12-19T05:24:28.405Z,-0.4
2018-12-19T05:25:28.771Z,-0.4
2018-12-19T05:26:28.656Z,-0.4
2018-12-19T05:27:28.554Z,-0.3
2018-12-19T05:28:28.449Z,-0.3
2018-12-19T05:29:28.334Z,-0.3
2018-12-19T05:30:28.254Z,-0.3
2018-12-19T05:31:28.162Z,-0.2
2018-12-19T05:32:28.070Z,-0.2
2018-12-19T05:33:27.962Z,-0.2
2018-12-19T05:34:27.860Z,-0.2
2018-12-19T05:35:28.172Z,-0.1
2018-12-19T05:36:33.563Z,-0.1
2018-12-19T05:37:33.464Z,-0.1
2018-12-19T05:38:33.359Z,-0.1
2018-12-19T05:39:33.230Z,0
2018-12-19T05:40:33.115Z,-0.1
2018-12-19T05:41:33.056Z,-0.1
2018-12-19T05:42:33.410Z,-0.1
2018-12-19T05:43:33.310Z,-0.1
2018-12-19T05:44:33.212Z,-0.1
2018-12-19T05:45:33.520Z,0
2018-12-19T05:46:33.459Z,-0.1
2018-12-19T05:47:33.362Z,0
2018-12-19T05:48:33.246Z,0.1
2018-12-19T05:55:32.426Z,0.8
2018-12-19T05:56:32.309Z,0.8
2018-12-19T05:57:32.239Z,0.8
2018-12-19T05:58:32.128Z,0.7
2018-12-19T05:59:32.045Z,0.7
2018-12-19T06:00:31.941Z,0.7
2018-12-19T06:01:31.857Z,0.6
2018-12-19T06:02:31.768Z,0.6
2018-12-19T06:03:31.670Z,0.6
2018-12-19T06:04:31.554Z,0.6
2018-12-19T06:05:31.898Z,0.6
2018-12-19T06:06:31.781Z,0.6
2018-12-19T06:07:31.664Z,0.6
2018-12-19T06:08:31.556Z,0.6
2018-12-19T06:09:34.118Z,0.6
2018-12-19T06:10:34.003Z,0.6
2018-12-19T06:11:33.895Z,0.6
2018-12-19T06:12:33.768Z,0.6
2018-12-19T06:13:33.732Z,0.6
2018-12-19T06:14:33.618Z,0.6
2018-12-19T06:15:34.142Z,0.6
2018-12-19T06:16:34.015Z,0.5
2018-12-19T06:17:33.908Z,0.6
2018-12-19T06:18:33.804Z,0.5
2018-12-19T06:19:33.716Z,0.5
2018-12-19T06:20:33.631Z,0.5
2018-12-19T06:21:33.533Z,0.5
2018-12-19T06:22:33.412Z,0.5
2018-12-19T06:23:33.297Z,0.5
2018-12-19T06:24:34.862Z,0.5
2018-12-19T06:25:35.197Z,0.5
2018-12-19T06:26:35.134Z,0.5
2018-12-19T06:27:35.032Z,0.5
2018-12-19T06:28:34.917Z,0.5
2018-12-19T06:29:34.814Z,0.5
2018-12-19T06:30:34.694Z,0.5
2018-12-19T06:31:34.630Z,0.5
2018-12-19T06:32:34.535Z,0.5
2018-12-19T06:33:34.426Z,0.5
2018-12-19T06:34:34.530Z,0.5
2018-12-19T06:35:34.837Z,0.5
2018-12-19T06:36:34.730Z,0.5
2018-12-19T06:37:34.642Z,0.5
2018-12-19T06:38:34.530Z,0.5
2018-12-19T06:39:34.426Z,0.5
2018-12-19T06:40:34.309Z,0.6
2018-12-19T06:41:34.222Z,0.6
2018-12-19T06:42:34.126Z,0.6
2018-12-19T06:43:34.026Z,0.6
2018-12-19T06:44:33.910Z,0.6
2018-12-19T06:45:34.220Z,0.6
2018-12-19T06:46:34.113Z,0.6
2018-12-19T06:47:34.006Z,0.6
2018-12-19T06:48:33.910Z,0.6
2018-12-19T06:49:33.804Z,0.6
2018-12-19T06:50:33.731Z,0.6
2018-12-19T06:51:33.645Z,0.6
2018-12-19T06:52:33.543Z,0.7
2018-12-19T06:53:33.475Z,0.6
2018-12-19T06:54:33.386Z,0.6
2018-12-19T06:55:33.686Z,0.6
2018-12-19T06:56:33.583Z,0.6
2018-12-19T06:57:33.462Z,0.6
2018-12-19T06:58:33.350Z,0.6
2018-12-19T06:59:33.258Z,0.7
2018-12-19T07:00:33.130Z,0.7
2018-12-19T07:01:33.010Z,0.7
2018-12-19T07:02:32.903Z,0.6
2018-12-19T07:03:32.788Z,0.6
2018-12-19T07:04:32.688Z,0.6
2018-12-19T07:05:32.993Z,0.7
2018-12-19T07:06:32.886Z,0.6
2018-12-19T07:07:32.804Z,0.7
2018-12-19T07:08:32.707Z,0.7
2018-12-19T07:15:31.651Z,1.2
2018-12-19T07:16:31.537Z,1.2
2018-12-19T07:17:31.438Z,1.2
2018-12-19T07:18:31.346Z,1.1
2018-12-19T07:19:31.248Z,1.1
2018-12-19T07:20:31.161Z,1.1
2018-12-19T07:21:31.062Z,1.1
2018-12-19T07:22:30.994Z,1.1
2018-12-19T07:23:30.892Z,1.1
2018-12-19T07:24:30.823Z,1.1
2018-12-19T07:25:31.152Z,1.1
2018-12-19T07:26:31.036Z,1.1
2018-12-19T07:27:30.916Z,1.1
2018-12-19T07:28:30.827Z,1.1
2018-12-19T07:29:30.729Z,1.1
2018-12-19T07:30:30.641Z,1.1
2018-12-19T07:31:30.542Z,1.1
2018-12-19T07:32:30.436Z,1.1
2018-12-19T07:33:30.316Z,1
2018-12-19T07:34:30.235Z,1.1
2018-12-19T07:35:30.642Z,1.1
2018-12-19T07:36:30.550Z,1.1
2018-12-19T07:37:30.507Z,1.1
2018-12-19T07:38:30.411Z,1.1
2018-12-19T07:39:30.309Z,1
2018-12-19T07:40:30.221Z,1
2018-12-19T07:41:30.112Z,1
2018-12-19T07:42:30.018Z,1.1
2018-12-19T07:43:30.189Z,1.1
2018-12-19T07:44:30.072Z,1.1
2018-12-19T07:45:30.424Z,1.1
2018-12-19T07:46:30.316Z,1.1
2018-12-19T07:47:30.230Z,1.1
2018-12-19T07:48:30.132Z,1.1
2018-12-19T07:49:30.027Z,1.1
2018-12-19T07:50:29.917Z,1.2
2018-12-19T07:51:30.051Z,1.2
2018-12-19T07:52:29.944Z,1.1
2018-12-19T07:53:29.867Z,1.1
2018-12-19T07:54:29.757Z,1.2
2018-12-19T07:55:30.142Z,1.2
2018-12-19T07:56:30.055Z,1.1
2018-12-19T07:57:29.945Z,1.2
2018-12-19T07:58:29.841Z,1.2
2018-12-19T07:59:29.730Z,1.2
2018-12-19T08:00:29.650Z,1.2
2018-12-19T08:01:29.549Z,1.2
2018-12-19T08:02:29.705Z,1.2
2018-12-19T08:03:29.593Z,1.2
2018-12-19T08:04:29.486Z,1.2
2018-12-19T08:05:30.043Z,1.2
2018-12-19T08:06:29.940Z,1.2
2018-12-19T08:07:30.898Z,1.2
2018-12-19T08:08:30.774Z,1.2
2018-12-19T08:09:30.671Z,1.2
2018-12-19T08:10:30.565Z,1.3
2018-12-19T08:11:30.465Z,1.3
2018-12-19T08:12:36.751Z,1.3
2018-12-19T08:13:36.644Z,1.3
2018-12-19T08:14:36.576Z,1.3
2018-12-19T08:15:37.114Z,1.3
2018-12-19T08:16:37.017Z,1.3
2018-12-19T08:17:36.930Z,1.3
2018-12-19T08:18:37.045Z,1.4
2018-12-19T08:19:36.945Z,1.4
2018-12-19T08:20:36.837Z,1.4
2018-12-19T08:21:36.730Z,1.4
2018-12-19T08:22:36.665Z,1.4
2018-12-19T08:23:36.565Z,1.4
2018-12-19T08:24:36.462Z,1.4
2018-12-19T08:25:36.796Z,1.4
2018-12-19T08:26:36.706Z,1.3
2018-12-19T08:27:36.612Z,1.4
2018-12-19T08:28:36.584Z,1.5
2018-12-19T08:29:36.483Z,1.6
2018-12-19T08:30:36.366Z,1.6
2018-12-19T08:31:36.263Z,1.7
2018-12-19T08:34:36.631Z,2
2018-12-19T08:36:36.931Z,2.1
2018-12-19T08:37:36.815Z,2.1
2018-12-19T08:38:36.697Z,2.2
2018-12-19T08:39:36.653Z,2.2
2018-12-19T08:40:36.765Z,2.2
2018-12-19T08:42:36.408Z,2.2
2018-12-19T08:43:36.315Z,2.2
2018-12-19T08:44:36.239Z,2.3
2018-12-19T08:45:36.543Z,2.3
2018-12-19T08:46:36.435Z,2.3
2018-12-19T08:47:36.327Z,2.3
2018-12-19T08:48:36.211Z,2.3
2018-12-19T08:49:36.105Z,2.4
2018-12-19T08:50:36.007Z,2.4
2018-12-19T08:51:35.890Z,2.5
2018-12-19T08:52:35.779Z,2.4
2018-12-19T08:53:35.681Z,2.5
2018-12-19T08:54:35.585Z,2.4
2018-12-19T08:55:36.931Z,2.5
2018-12-19T08:56:36.809Z,2.5
2018-12-19T08:57:36.701Z,2.5
2018-12-19T08:58:36.572Z,2.5
2018-12-19T08:59:36.471Z,2.5
2018-12-19T09:00:36.383Z,2.5
2018-12-19T09:01:36.283Z,2.5
2018-12-19T09:02:36.177Z,2.6
2018-12-19T09:03:36.063Z,2.6
2018-12-19T09:04:35.961Z,2.6
2018-12-19T09:05:36.376Z,2.6
2018-12-19T09:06:36.263Z,2.6
2018-12-19T09:07:36.147Z,2.6
2018-12-19T09:08:36.029Z,2.6
2018-12-19T09:09:35.922Z,2.5
2018-12-19T09:10:35.835Z,2.5
2018-12-19T09:11:35.744Z,2.5
2018-12-19T09:12:35.933Z,2.5
2018-12-19T09:13:35.835Z,2.5
2018-12-19T09:14:35.739Z,2.4
2018-12-19T09:15:36.097Z,2.4
2018-12-19T09:16:36.014Z,2.3
2018-12-19T09:17:36.460Z,2.3
2018-12-19T09:18:36.359Z,2.3
2018-12-19T09:19:36.268Z,2.3
2018-12-19T09:20:36.182Z,2.3
2018-12-19T09:21:36.085Z,2.2
2018-12-19T09:22:35.965Z,2.1
2018-12-19T09:23:36.081Z,2.1
2018-12-19T09:24:35.977Z,2.1
2018-12-19T09:25:36.533Z,2.1
2018-12-19T09:26:36.462Z,2.1
2018-12-19T09:27:36.359Z,2.1
2018-12-19T09:28:36.245Z,2.2
2018-12-19T09:29:36.145Z,2
2018-12-19T09:30:36.072Z,2
2018-12-19T09:31:35.967Z,2.1
2018-12-19T09:33:35.625Z,2.4
2018-12-19T09:34:35.511Z,2.5
2018-12-19T09:35:35.839Z,2.6
2018-12-19T09:36:35.740Z,2.6
2018-12-19T09:37:36.029Z,2.6
2018-12-19T09:38:35.939Z,2.7
2018-12-19T09:39:35.832Z,2.7
2018-12-19T09:40:35.966Z,2.8
2018-12-19T09:41:35.857Z,2.8
2018-12-19T09:42:35.774Z,2.8
2018-12-19T09:43:35.655Z,2.8
2018-12-19T09:44:35.784Z,2.9
2018-12-19T09:45:36.101Z,2.9
2018-12-19T09:46:35.985Z,3
2018-12-19T09:47:35.880Z,3
2018-12-19T09:48:35.794Z,2.9
2018-12-19T09:49:35.698Z,3
2018-12-19T09:50:35.612Z,3
2018-12-19T09:51:35.751Z,3
2018-12-19T09:52:35.866Z,3
2018-12-19T09:53:35.807Z,3
2018-12-19T09:54:35.714Z,3.1
2018-12-19T09:55:36.047Z,3.1
2018-12-19T09:56:35.950Z,3.1
2018-12-19T09:57:35.924Z,3.1
2018-12-19T09:58:35.821Z,3.1
2018-12-19T09:59:35.740Z,3.1
2018-12-19T10:00:35.702Z,3.1
2018-12-19T10:01:35.601Z,3.1
2018-12-19T10:02:35.501Z,3.1
2018-12-19T10:03:35.652Z,3
2018-12-19T10:04:35.552Z,2.9
2018-12-19T10:05:35.864Z,2.9
2018-12-19T10:06:35.746Z,2.9
2018-12-19T10:07:35.650Z,2.9
2018-12-19T10:08:35.534Z,2.9
2018-12-19T10:09:35.455Z,3
2018-12-19T10:10:35.336Z,3
2018-12-19T10:11:35.234Z,3
2018-12-19T10:12:35.411Z,3.1
2018-12-19T10:13:35.304Z,3.1
2018-12-19T10:14:35.216Z,3.1
2018-12-19T10:15:35.539Z,3.1
2018-12-19T10:16:35.455Z,3.2
2018-12-19T10:17:41.628Z,3.2
2018-12-19T10:18:41.509Z,3.2
2018-12-19T10:19:41.416Z,3.2
2018-12-19T10:20:41.306Z,3.2
2018-12-19T10:21:42.228Z,3.2
2018-12-19T10:22:42.111Z,3.1
2018-12-19T10:23:42.018Z,3.1
2018-12-19T10:24:41.945Z,3.1
2018-12-19T10:25:42.303Z,3.1
2018-12-19T10:26:42.195Z,3.1
2018-12-19T10:27:42.172Z,3
2018-12-19T10:28:42.065Z,3
2018-12-19T10:29:41.964Z,3
2018-12-19T10:30:41.892Z,3
2018-12-19T10:31:41.769Z,2.9
2018-12-19T10:32:41.667Z,2.9
2018-12-19T10:33:41.558Z,2.9
2018-12-19T10:34:41.458Z,2.9
2018-12-19T10:35:41.809Z,2.9
2018-12-19T10:36:41.723Z,2.9
2018-12-19T10:37:41.666Z,2.9
2018-12-19T10:38:41.619Z,2.9
2018-12-19T10:39:41.709Z,2.9
2018-12-19T10:40:41.628Z,2.9
2018-12-19T10:41:41.523Z,2.8
2018-12-19T10:42:41.429Z,2.8
2018-12-19T10:43:42.369Z,2.8
2018-12-19T10:44:42.269Z,2.8
2018-12-19T10:45:42.612Z,2.8
2018-12-19T10:46:42.506Z,2.7
2018-12-19T10:47:42.398Z,2.8
2018-12-19T10:48:42.334Z,2.8
2018-12-19T10:49:42.233Z,2.7
2018-12-19T10:50:42.138Z,2.8
2018-12-19T10:51:42.055Z,2.8
2018-12-19T10:52:41.957Z,2.7
2018-12-19T10:53:43.092Z,2.6
2018-12-19T10:54:43.253Z,2.7
2018-12-19T10:55:43.817Z,2.7
2018-12-19T10:56:43.729Z,2.7
2018-12-19T10:57:43.625Z,2.7
2018-12-19T10:58:43.523Z,2.7
2018-12-19T10:59:43.407Z,2.7
2018-12-19T11:00:43.308Z,2.7
2018-12-19T11:01:43.273Z,2.7
2018-12-19T11:02:43.391Z,2.6
2018-12-19T11:03:43.339Z,2.7
2018-12-19T11:04:43.233Z,2.7
2018-12-19T11:05:43.571Z,2.6
2018-12-19T11:06:43.469Z,2.6
2018-12-19T11:07:43.385Z,2.6
2018-12-19T11:08:43.288Z,2.7
2018-12-19T11:09:44.202Z,2.8
2018-12-19T11:10:45.701Z,2.8
2018-12-19T11:11:45.613Z,2.8
2018-12-19T11:12:45.525Z,2.9
2018-12-19T11:13:45.425Z,3
2018-12-19T11:15:45.495Z,3.2
2018-12-19T11:16:45.429Z,3.3
2018-12-19T11:17:45.617Z,3.4
2018-12-19T11:18:45.508Z,3.4
2018-12-19T11:19:45.400Z,3.5
2018-12-19T11:20:45.307Z,3.4
2018-12-19T11:21:45.210Z,3.4
2018-12-19T11:22:45.117Z,3.4
2018-12-19T11:23:47.827Z,3.4
2018-12-19T11:24:47.731Z,3.4
2018-12-19T11:25:48.843Z,3.3
2018-12-19T11:26:48.746Z,3.3
2018-12-19T11:27:48.660Z,3.3
2018-12-19T11:28:48.553Z,3.3
2018-12-19T11:29:48.462Z,3.3
2018-12-19T11:30:49.038Z,3.3
2018-12-19T11:31:48.910Z,3.3
2018-12-19T11:32:48.830Z,3.3
2018-12-19T11:33:48.715Z,3.3
2018-12-19T11:34:48.658Z,3.2
2018-12-19T11:35:48.973Z,3.2
2018-12-19T11:36:48.870Z,3.2
2018-12-19T11:37:48.796Z,3.2
2018-12-19T11:38:48.685Z,3.2
2018-12-19T11:39:48.570Z,3.2
2018-12-19T11:40:48.455Z,3.2
2018-12-19T11:41:48.590Z,3.2
2018-12-19T11:42:48.492Z,3.2
2018-12-19T11:43:48.375Z,3.2
2018-12-19T11:44:48.270Z,3.2
2018-12-19T11:45:48.601Z,3.1
2018-12-19T11:46:48.500Z,3.2
2018-12-19T11:47:48.404Z,3.2
2018-12-19T11:48:48.289Z,3.2
2018-12-19T11:49:48.176Z,3.2
2018-12-19T11:50:48.066Z,3.2
2018-12-19T11:51:47.951Z,3.2
2018-12-19T11:52:47.865Z,3.2
2018-12-19T11:53:47.767Z,3.2
2018-12-19T11:54:47.659Z,3.1
2018-12-19T11:55:48.017Z,3.1
2018-12-19T11:56:47.917Z,3.2
2018-12-19T11:57:47.840Z,3.2
2018-12-19T11:58:47.726Z,3.2
2018-12-19T11:59:47.639Z,3.2
2018-12-19T12:00:47.576Z,3.2
2018-12-19T12:01:47.472Z,3.3
2018-12-19T12:02:47.395Z,3.3
2018-12-19T12:03:47.304Z,3.3
2018-12-19T12:04:47.198Z,3.3
2018-12-19T12:05:47.516Z,3.3
2018-12-19T12:06:47.400Z,3.3
2018-12-19T12:07:47.293Z,3.3
2018-12-19T12:08:47.442Z,3.4
2018-12-19T12:09:47.573Z,3.4
2018-12-19T12:10:48.495Z,3.4
2018-12-19T12:11:48.406Z,3.3
2018-12-19T12:12:48.302Z,3.4
2018-12-19T12:13:48.205Z,3.4
2018-12-19T12:14:48.110Z,3.3
2018-12-19T12:15:48.439Z,3.3
2018-12-19T12:16:48.333Z,3.3
2018-12-19T12:17:48.280Z,3.3
2018-12-19T12:18:48.196Z,3.3
2018-12-19T12:19:48.097Z,3.3
2018-12-19T12:20:48.064Z,3.4
2018-12-19T12:21:47.949Z,3.4
2018-12-19T12:22:47.880Z,3.4
2018-12-19T12:23:48.108Z,3.4
2018-12-19T12:24:48.028Z,3.4
2018-12-19T12:25:48.372Z,3.4
2018-12-19T12:26:48.288Z,3.4
2018-12-19T12:27:48.184Z,3.4
2018-12-19T12:28:48.112Z,3.5
2018-12-19T12:29:48.044Z,3.5
2018-12-19T12:30:47.936Z,3.6
2018-12-19T12:31:47.831Z,3.8
2018-12-19T12:32:47.720Z,3.7
2018-12-19T12:33:47.596Z,3.8
2018-12-19T12:34:47.488Z,3.9
2018-12-19T12:35:47.832Z,4
2018-12-19T12:36:47.754Z,4
2018-12-19T12:37:47.662Z,4.1
2018-12-19T12:38:47.561Z,4.1
2018-12-19T12:39:47.463Z,4.2
2018-12-19T12:40:47.374Z,4.3
2018-12-19T12:41:52.983Z,4.4
2018-12-19T12:42:52.910Z,4.4
2018-12-19T12:43:52.838Z,4.5
2018-12-19T12:44:53.052Z,4.5
2018-12-19T12:45:53.399Z,4.5
2018-12-19T12:46:53.354Z,4.5
2018-12-19T12:47:53.257Z,4.6
2018-12-19T12:48:53.172Z,4.5
2018-12-19T12:49:53.086Z,4.5
2018-12-19T12:50:53.003Z,4.5
2018-12-19T12:51:52.914Z,4.5
2018-12-19T12:52:52.821Z,4.5
2018-12-19T12:53:52.723Z,4.5
2018-12-19T12:54:52.612Z,4.5
2018-12-19T12:55:53.035Z,4.4
2018-12-19T12:56:52.922Z,4.4
2018-12-19T12:57:52.843Z,4.4
2018-12-19T12:58:52.785Z,4.5
2018-12-19T12:59:52.673Z,4.5
2018-12-19T13:00:52.539Z,4.6
2018-12-19T13:01:52.442Z,4.6
2018-12-19T13:02:52.345Z,4.6
2018-12-19T13:03:52.242Z,5.7
2018-12-19T13:04:52.127Z,4.7
2018-12-19T13:05:52.468Z,4.7
2018-12-19T13:06:52.390Z,4.7
2018-12-19T13:07:52.292Z,4.8
2018-12-19T13:08:52.169Z,4.8
2018-12-19T13:09:52.119Z,4.7
2018-12-19T13:10:52.011Z,4.7
2018-12-19T13:11:51.898Z,4.7
2018-12-19T13:12:58.433Z,4.6
2018-12-19T13:13:58.346Z,4.6
2018-12-19T13:14:58.223Z,4.5
2018-12-19T13:15:58.559Z,4.5
2018-12-19T13:16:58.442Z,4.4
2018-12-19T13:17:58.353Z,4.4
2018-12-19T13:18:58.249Z,4.4
2018-12-19T13:19:58.136Z,4.4
2018-12-19T13:20:58.055Z,4.5
2018-12-19T13:21:57.943Z,4.5
2018-12-19T13:22:57.847Z,4.5
2018-12-19T13:23:57.751Z,4.5
2018-12-19T13:24:57.655Z,4.6
2018-12-19T13:25:57.959Z,4.6
2018-12-19T13:26:57.850Z,4.6
2018-12-19T13:27:57.793Z,4.6
2018-12-19T13:28:57.703Z,4.7
2018-12-19T13:29:57.598Z,4.7
2018-12-19T13:30:57.493Z,4.6
2018-12-19T13:31:57.389Z,4.6
2018-12-19T13:32:57.273Z,4.6
2018-12-19T13:33:57.162Z,4.6
2018-12-19T13:34:57.069Z,4.5
2018-12-19T13:35:57.659Z,4.5
2018-12-19T13:36:57.583Z,4.5
2018-12-19T13:37:57.489Z,4.4
2018-12-19T13:38:57.410Z,4.4
2018-12-19T13:39:57.332Z,4.3
2018-12-19T13:40:57.224Z,4.3
2018-12-19T13:41:57.148Z,4.3
2018-12-19T13:42:57.057Z,4.3
2018-12-19T13:43:56.985Z,4.3
2018-12-19T13:44:57.907Z,4.2
2018-12-19T13:45:58.236Z,4.2
2018-12-19T13:47:01.058Z,4.2
2018-12-19T13:48:00.961Z,4.2
2018-12-19T13:49:00.891Z,4.2
2018-12-19T13:50:00.858Z,4.2
2018-12-19T13:51:00.748Z,4.2
2018-12-19T13:52:00.637Z,4.1
2018-12-19T13:53:00.804Z,4.1
2018-12-19T13:54:00.696Z,4.1
2018-12-19T13:55:00.597Z,4.1
2018-12-19T13:56:00.970Z,4.1
2018-12-19T13:57:00.855Z,4.1
2018-12-19T13:58:07.758Z,4.1
2018-12-19T13:59:07.651Z,4
2018-12-19T14:00:07.538Z,4
2018-12-19T14:01:07.443Z,4.1
2018-12-19T14:02:07.409Z,4
2018-12-19T14:03:07.307Z,4.1
2018-12-19T14:04:07.203Z,4
2018-12-19T14:05:07.085Z,4.1
2018-12-19T14:06:07.462Z,4
2018-12-19T14:07:07.379Z,4
2018-12-19T14:08:07.261Z,4
2018-12-19T14:09:07.157Z,4
2018-12-19T14:10:07.042Z,4.1
2018-12-19T14:11:06.937Z,4.1
2018-12-19T14:12:12.974Z,4.2
2018-12-19T14:13:12.861Z,4.4
2018-12-19T14:14:12.771Z,4.3
2018-12-19T14:15:12.671Z,4.3
2018-12-19T14:16:12.972Z,4.4
2018-12-19T14:17:12.940Z,4.4
2018-12-19T14:18:12.845Z,4.4
2018-12-19T14:19:12.791Z,4.5
2018-12-19T14:20:12.710Z,4.5
2018-12-19T14:21:12.612Z,4.5
2018-12-19T14:22:12.505Z,4.5
2018-12-19T14:23:12.401Z,4.6
2018-12-19T14:24:12.307Z,4.6
2018-12-19T14:25:12.201Z,4.6
2018-12-19T14:26:12.548Z,4.7
2018-12-19T14:27:12.446Z,4.7
2018-12-19T14:28:12.355Z,4.7
2018-12-19T14:29:12.247Z,4.7
2018-12-19T14:30:12.159Z,4.6
2018-12-19T14:31:12.065Z,4.6
2018-12-19T14:32:11.958Z,4.6
2018-12-19T14:33:11.863Z,4.5
2018-12-19T14:34:11.845Z,4.5
2018-12-19T14:35:11.749Z,4.5
2018-12-19T14:36:12.094Z,4.4
2018-12-19T14:37:11.994Z,4.3
2018-12-19T14:38:11.955Z,4.3
2018-12-19T14:39:12.123Z,4.3
2018-12-19T14:40:12.017Z,4.3
2018-12-19T14:41:11.919Z,4.2
2018-12-19T14:42:11.813Z,4.2
2018-12-19T14:43:11.709Z,4.2
2018-12-19T14:44:11.600Z,4.1
2018-12-19T14:45:11.509Z,4.1
2018-12-19T14:46:12.071Z,4.1
2018-12-19T14:47:11.983Z,4
2018-12-19T14:48:11.871Z,4
2018-12-19T14:49:14.695Z,4
2018-12-19T14:50:14.623Z,4.1
2018-12-19T14:51:14.526Z,4.1
2018-12-19T14:52:14.425Z,4.1
2018-12-19T14:53:14.317Z,4.1
2018-12-19T14:54:14.229Z,4.1
2018-12-19T14:55:14.153Z,4.2
2018-12-19T14:56:14.467Z,4.2
2018-12-19T14:57:14.410Z,4.3
2018-12-19T14:58:14.297Z,4.3
2018-12-19T14:59:14.193Z,4.2
2018-12-19T15:00:14.106Z,4.2
2018-12-19T15:01:13.997Z,4.2
2018-12-19T15:02:14.091Z,4.2
2018-12-19T15:03:13.977Z,4.2
2018-12-19T15:04:13.871Z,4.2
2018-12-19T15:05:13.777Z,4.2
2018-12-19T15:06:14.108Z,4.1
2018-12-19T15:07:14.002Z,4.1
2018-12-19T15:08:13.898Z,4.1
2018-12-19T15:09:13.795Z,4.1
2018-12-19T15:10:13.709Z,4.1
2018-12-19T15:11:13.593Z,4.1
2018-12-19T15:12:13.491Z,4.1
2018-12-19T15:13:13.373Z,4
2018-12-19T15:14:13.273Z,4
2018-12-19T15:15:13.180Z,4
2018-12-19T15:16:13.541Z,4
2018-12-19T15:17:14.571Z,4
2018-12-19T15:18:14.457Z,4
2018-12-19T15:19:14.355Z,4
2018-12-19T15:20:14.336Z,4
2018-12-19T15:21:15.483Z,4
2018-12-19T15:22:15.368Z,4
2018-12-19T15:23:15.270Z,3.9
2018-12-19T15:24:15.167Z,3.9
2018-12-19T15:25:15.059Z,3.9
2018-12-19T15:26:15.415Z,3.9
2018-12-19T15:27:17.847Z,3.8
2018-12-19T15:28:17.761Z,3.8
2018-12-19T15:29:17.891Z,3.8
2018-12-19T15:30:17.847Z,3.9
2018-12-19T15:31:17.759Z,3.9
2018-12-19T15:32:17.687Z,4
2018-12-19T15:33:17.576Z,4
2018-12-19T15:34:17.482Z,4.1
2018-12-19T15:35:17.374Z,4.1
2018-12-19T15:36:17.687Z,4.1
2018-12-19T15:37:17.607Z,4.1
2018-12-19T15:38:17.499Z,4.1
2018-12-19T15:39:17.651Z,4.1
2018-12-19T15:40:17.650Z,4.1
2018-12-19T15:41:17.558Z,4.1
2018-12-19T15:42:17.467Z,4
2018-12-19T15:43:18.386Z,4
2018-12-19T15:44:18.291Z,4
2018-12-19T15:45:18.193Z,3.9
2018-12-19T15:46:18.773Z,3.8
2018-12-19T15:47:18.698Z,3.8
2018-12-19T15:48:18.834Z,3.7
2018-12-19T15:49:18.723Z,3.7
2018-12-19T15:50:18.613Z,3.7
2018-12-19T15:51:18.513Z,3.7
2018-12-19T15:52:18.413Z,3.6
2018-12-19T15:53:18.315Z,3.6
2018-12-19T15:54:18.206Z,3.5
2018-12-19T15:55:18.107Z,3.5
2018-12-19T15:56:18.686Z,3.4
2018-12-19T15:57:18.587Z,3.4
2018-12-19T15:58:18.520Z,3.3
2018-12-19T15:59:18.433Z,3.3
2018-12-19T16:00:18.363Z,3.3
2018-12-19T16:01:18.254Z,3.2
2018-12-19T16:02:18.146Z,3.2
2018-12-19T16:03:18.287Z,3.2
2018-12-19T16:04:18.423Z,3.1
2018-12-19T16:05:18.330Z,3.1